KRME/RME METAR and TAF weather

Enter ICAO airport designator
Station Type Date Time Source
KRME METAR 2020/09/22 01:53 UTC NOAA

KRME 220153Z AUTO 00000KT 10SM CLR 06/03 A3043 RMK AO2 SLP306 T00610028


Station Type Date Time Source
KRME Decoded METAR 2020/09/22 01:53 UTC NOAA

GRIFFISS AIRFIELD, NY, United States (KRME) 43-14N 075-24W
Sep 21, 2020 - 09:53 PM EDT / 2020.09.22 0153 UTC
Wind: Calm:0
Visibility: 10 mile(s):0
Sky conditions: clear
Temperature: 43.0 F (6.1 C)
Dew Point: 37.0 F (2.8 C)
Relative Humidity: 79%
Pressure (altimeter): 30.43 in. Hg (1030 hPa)
ob: KRME 220153Z AUTO 00000KT 10SM CLR 06/03 A3043 RMK AO2 SLP306 T00610028
cycle: 2

Station Type Date Time Source
KRME TAF 2020/09/21 18:22 UTC NOAA

TAF KRME 211720Z 2118/2218 VRB03KT P6SM SKC
FM221500 31006KT P6SM FEW250

Example: see airport list